AWC21A EGSS-EHGG
Flight info
| Callsign | AWC21A |
|---|---|
| Flight time | 0h 42m |
| Altitude | 31000 |
| Route | CLN L620 TULIP Y12 SPY N873 GRONY |
| Aircraft | A320/M-SDE3FGHIRWY/LB1 |
Departure
| Time | 2026-04-26 14:18 |
|---|---|
| Airport | London Stansted Airport (EGSS) |
Arrival
| Time | 2026-04-26 15:01 |
|---|---|
| Airport | Groningen Airport Eelde (EHGG) |
| Time | Latitude | Longitude | Altitude | Speed | Heading |
|---|---|---|---|---|---|
| 2026-04-26 14:10 | 51.88501 | 0.24391 | 333 ft | 0 kts | 313° |
| 2026-04-26 14:13 | 51.88502 | 0.24389 | 333 ft | 2 kts | 313° |
| 2026-04-26 14:13 | 51.88525 | 0.24343 | 334 ft | 7 kts | 294° |
| 2026-04-26 14:13 | 51.88508 | 0.24267 | 334 ft | 8 kts | 224° |
| 2026-04-26 14:14 | 51.88464 | 0.24199 | 335 ft | 9 kts | 223° |
| 2026-04-26 14:14 | 51.88414 | 0.24126 | 336 ft | 10 kts | 222° |
| 2026-04-26 14:14 | 51.88359 | 0.24045 | 336 ft | 10 kts | 223° |
| 2026-04-26 14:14 | 51.88303 | 0.23960 | 337 ft | 11 kts | 222° |
| 2026-04-26 14:15 | 51.88244 | 0.23873 | 338 ft | 11 kts | 224° |
| 2026-04-26 14:15 | 51.88183 | 0.23778 | 340 ft | 12 kts | 223° |
| 2026-04-26 14:15 | 51.88121 | 0.23684 | 340 ft | 12 kts | 221° |
| 2026-04-26 14:15 | 51.88054 | 0.23584 | 341 ft | 13 kts | 222° |
| 2026-04-26 14:16 | 51.87983 | 0.23480 | 341 ft | 14 kts | 222° |
| 2026-04-26 14:16 | 51.87909 | 0.23369 | 342 ft | 14 kts | 223° |
| 2026-04-26 14:16 | 51.87830 | 0.23250 | 341 ft | 16 kts | 222° |
| 2026-04-26 14:16 | 51.87747 | 0.23125 | 341 ft | 16 kts | 230° |
| 2026-04-26 14:17 | 51.87775 | 0.22959 | 341 ft | 17 kts | 315° |
| 2026-04-26 14:17 | 51.87864 | 0.22806 | 341 ft | 17 kts | 313° |
| 2026-04-26 14:17 | 51.87936 | 0.22684 | 340 ft | 10 kts | 324° |
| 2026-04-26 14:17 | 51.87998 | 0.22728 | 341 ft | 11 kts | 41° |
| 2026-04-26 14:18 | 51.88186 | 0.23005 | 343 ft | 74 kts | 43° |
| 2026-04-26 14:18 | 51.88757 | 0.23867 | 338 ft | 146 kts | 43° |
| 2026-04-26 14:18 | 51.89557 | 0.25118 | 752 ft | 169 kts | 47° |
| 2026-04-26 14:18 | 51.90391 | 0.26452 | 1554 ft | 173 kts | 45° |
| 2026-04-26 14:19 | 51.91184 | 0.27866 | 2396 ft | 172 kts | 58° |
| 2026-04-26 14:19 | 51.91694 | 0.29683 | 2888 ft | 184 kts | 73° |
| 2026-04-26 14:19 | 51.91707 | 0.31788 | 3321 ft | 200 kts | 105° |
| 2026-04-26 14:19 | 51.91128 | 0.33979 | 3690 ft | 223 kts | 116° |
| 2026-04-26 14:20 | 51.90383 | 0.36278 | 4170 ft | 242 kts | 116° |
| 2026-04-26 14:20 | 51.89587 | 0.38788 | 4671 ft | 259 kts | 115° |
| 2026-04-26 14:20 | 51.88786 | 0.41420 | 5366 ft | 268 kts | 115° |
| 2026-04-26 14:20 | 51.87976 | 0.44135 | 6188 ft | 272 kts | 115° |
| 2026-04-26 14:21 | 51.87154 | 0.46919 | 7009 ft | 277 kts | 115° |
| 2026-04-26 14:21 | 51.86330 | 0.49723 | 7791 ft | 281 kts | 115° |
| 2026-04-26 14:21 | 51.85489 | 0.52586 | 8568 ft | 285 kts | 115° |
| 2026-04-26 14:21 | 51.84634 | 0.55494 | 9329 ft | 289 kts | 115° |
| 2026-04-26 14:22 | 51.83779 | 0.58397 | 10044 ft | 293 kts | 116° |
| 2026-04-26 14:22 | 51.82828 | 0.61347 | 10709 ft | 298 kts | 114° |
| 2026-04-26 14:22 | 51.82319 | 0.64664 | 10903 ft | 320 kts | 91° |
| 2026-04-26 14:22 | 51.82571 | 0.68368 | 11001 ft | 343 kts | 79° |
| 2026-04-26 14:23 | 51.83019 | 0.72234 | 11454 ft | 354 kts | 81° |
| 2026-04-26 14:23 | 51.83352 | 0.76212 | 12077 ft | 358 kts | 84° |
| 2026-04-26 14:23 | 51.83574 | 0.80182 | 12700 ft | 362 kts | 86° |
| 2026-04-26 14:23 | 51.83747 | 0.84265 | 13288 ft | 366 kts | 86° |
| 2026-04-26 14:24 | 51.83902 | 0.88377 | 13852 ft | 370 kts | 86° |
| 2026-04-26 14:24 | 51.84054 | 0.92547 | 14415 ft | 374 kts | 86° |
| 2026-04-26 14:24 | 51.84204 | 0.96696 | 14986 ft | 377 kts | 86° |
| 2026-04-26 14:24 | 51.84357 | 1.00928 | 15532 ft | 381 kts | 86° |
| 2026-04-26 14:25 | 51.84511 | 1.05198 | 16058 ft | 384 kts | 86° |
| 2026-04-26 14:25 | 51.84667 | 1.09492 | 16594 ft | 387 kts | 85° |
| 2026-04-26 14:25 | 51.84975 | 1.13822 | 17100 ft | 390 kts | 80° |
| 2026-04-26 14:25 | 51.85551 | 1.18101 | 17584 ft | 393 kts | 74° |
| 2026-04-26 14:26 | 51.86360 | 1.22338 | 18083 ft | 396 kts | 71° |
| 2026-04-26 14:26 | 51.87226 | 1.26538 | 18562 ft | 398 kts | 70° |
| 2026-04-26 14:26 | 51.88114 | 1.30811 | 19038 ft | 401 kts | 70° |
| 2026-04-26 14:26 | 51.89001 | 1.35104 | 19511 ft | 404 kts | 70° |
| 2026-04-26 14:27 | 51.89881 | 1.39394 | 19957 ft | 407 kts | 70° |
| 2026-04-26 14:27 | 51.90767 | 1.43743 | 20393 ft | 410 kts | 70° |
| 2026-04-26 14:27 | 51.91655 | 1.48116 | 20836 ft | 412 kts | 70° |
| 2026-04-26 14:27 | 51.92554 | 1.52565 | 21262 ft | 415 kts | 70° |
| 2026-04-26 14:28 | 51.93443 | 1.56977 | 21661 ft | 418 kts | 70° |
| 2026-04-26 14:28 | 51.94344 | 1.61456 | 22073 ft | 421 kts | 70° |
| 2026-04-26 14:28 | 51.95250 | 1.65976 | 22484 ft | 423 kts | 70° |
| 2026-04-26 14:28 | 51.96156 | 1.70510 | 22864 ft | 426 kts | 70° |
| 2026-04-26 14:29 | 51.97065 | 1.75065 | 23234 ft | 428 kts | 70° |
| 2026-04-26 14:29 | 51.97982 | 1.79671 | 23603 ft | 431 kts | 70° |
| 2026-04-26 14:29 | 51.98895 | 1.84263 | 23968 ft | 433 kts | 70° |
| 2026-04-26 14:29 | 51.99822 | 1.88938 | 24320 ft | 436 kts | 70° |
| 2026-04-26 14:30 | 52.00751 | 1.93638 | 24665 ft | 439 kts | 70° |
| 2026-04-26 14:30 | 52.01667 | 1.98289 | 24995 ft | 441 kts | 70° |
| 2026-04-26 14:30 | 52.02605 | 2.03056 | 25323 ft | 444 kts | 70° |
| 2026-04-26 14:30 | 52.03545 | 2.07849 | 25663 ft | 447 kts | 70° |
| 2026-04-26 14:31 | 52.04481 | 2.12637 | 25993 ft | 449 kts | 70° |
| 2026-04-26 14:31 | 52.05422 | 2.17463 | 26319 ft | 451 kts | 70° |
| 2026-04-26 14:31 | 52.06365 | 2.22308 | 26622 ft | 454 kts | 70° |
| 2026-04-26 14:31 | 52.07315 | 2.27205 | 26930 ft | 457 kts | 70° |
| 2026-04-26 14:32 | 52.08271 | 2.32143 | 27223 ft | 459 kts | 70° |
| 2026-04-26 14:32 | 52.09227 | 2.37093 | 27526 ft | 462 kts | 70° |
| 2026-04-26 14:32 | 52.10171 | 2.42002 | 27819 ft | 464 kts | 70° |
| 2026-04-26 14:32 | 52.11141 | 2.47059 | 28154 ft | 465 kts | 70° |
| 2026-04-26 14:33 | 52.12104 | 2.52078 | 28571 ft | 464 kts | 69° |
| 2026-04-26 14:33 | 52.13055 | 2.57042 | 28954 ft | 465 kts | 69° |
| 2026-04-26 14:33 | 52.14016 | 2.62079 | 29247 ft | 467 kts | 69° |
| 2026-04-26 14:33 | 52.14974 | 2.67110 | 29523 ft | 468 kts | 70° |
| 2026-04-26 14:34 | 52.15933 | 2.72163 | 29801 ft | 470 kts | 70° |
| 2026-04-26 14:34 | 52.16889 | 2.77223 | 30097 ft | 471 kts | 70° |
| 2026-04-26 14:34 | 52.17853 | 2.82333 | 30307 ft | 473 kts | 70° |
| 2026-04-26 14:35 | 52.19772 | 2.92565 | 30327 ft | 474 kts | 70° |
| 2026-04-26 14:35 | 52.21682 | 3.02808 | 30330 ft | 474 kts | 70° |
| 2026-04-26 14:36 | 52.23576 | 3.13015 | 30327 ft | 473 kts | 70° |
| 2026-04-26 14:36 | 52.25465 | 3.23258 | 30330 ft | 473 kts | 70° |
| 2026-04-26 14:37 | 52.27347 | 3.33478 | 30339 ft | 472 kts | 69° |
| 2026-04-26 14:37 | 52.29209 | 3.43651 | 30335 ft | 471 kts | 69° |
| 2026-04-26 14:38 | 52.31067 | 3.53865 | 30336 ft | 470 kts | 69° |
| 2026-04-26 14:38 | 52.32912 | 3.64085 | 30340 ft | 469 kts | 69° |
| 2026-04-26 14:39 | 52.34828 | 3.74199 | 30333 ft | 466 kts | 65° |
| 2026-04-26 14:39 | 52.37418 | 3.83840 | 30170 ft | 459 kts | 61° |
| 2026-04-26 14:39 | 52.38737 | 3.88571 | 29524 ft | 457 kts | 62° |
| 2026-04-26 14:40 | 52.40023 | 3.93241 | 28791 ft | 457 kts | 62° |
| 2026-04-26 14:40 | 52.41313 | 3.97997 | 28064 ft | 456 kts | 63° |
| 2026-04-26 14:40 | 52.42575 | 4.02698 | 27321 ft | 455 kts | 63° |
| 2026-04-26 14:40 | 52.43835 | 4.07438 | 26748 ft | 450 kts | 63° |
| 2026-04-26 14:41 | 52.45071 | 4.12115 | 26181 ft | 445 kts | 63° |
| 2026-04-26 14:41 | 52.46272 | 4.16679 | 25596 ft | 441 kts | 63° |
| 2026-04-26 14:41 | 52.47477 | 4.21267 | 25006 ft | 437 kts | 63° |
| 2026-04-26 14:41 | 52.48676 | 4.25842 | 24422 ft | 433 kts | 63° |
| 2026-04-26 14:42 | 52.49848 | 4.30318 | 23888 ft | 429 kts | 64° |
| 2026-04-26 14:42 | 52.50999 | 4.34733 | 23636 ft | 417 kts | 64° |
| 2026-04-26 14:42 | 52.52121 | 4.39054 | 23381 ft | 407 kts | 64° |
| 2026-04-26 14:42 | 52.53222 | 4.43292 | 22947 ft | 402 kts | 63° |
| 2026-04-26 14:43 | 52.54308 | 4.47474 | 22463 ft | 399 kts | 63° |
| 2026-04-26 14:43 | 52.55387 | 4.51640 | 21971 ft | 396 kts | 63° |
| 2026-04-26 14:43 | 52.56451 | 4.55754 | 21530 ft | 393 kts | 64° |
| 2026-04-26 14:43 | 52.57516 | 4.59878 | 21071 ft | 390 kts | 64° |
| 2026-04-26 14:44 | 52.58557 | 4.63922 | 20622 ft | 387 kts | 64° |
| 2026-04-26 14:44 | 52.59598 | 4.67971 | 20161 ft | 384 kts | 64° |
| 2026-04-26 14:44 | 52.60635 | 4.72011 | 19727 ft | 381 kts | 64° |
| 2026-04-26 14:44 | 52.61656 | 4.75994 | 19251 ft | 378 kts | 64° |
| 2026-04-26 14:45 | 52.62676 | 4.79985 | 18811 ft | 375 kts | 64° |
| 2026-04-26 14:45 | 52.63362 | 4.82668 | 18509 ft | 374 kts | 64° |
| 2026-04-26 14:45 | 52.64682 | 4.87845 | 17896 ft | 370 kts | 64° |
| 2026-04-26 14:45 | 52.65683 | 4.91786 | 17502 ft | 368 kts | 64° |
| 2026-04-26 14:46 | 52.66669 | 4.95665 | 17045 ft | 365 kts | 64° |
| 2026-04-26 14:46 | 52.67658 | 4.99564 | 16611 ft | 362 kts | 64° |
| 2026-04-26 14:46 | 52.68625 | 5.03387 | 16233 ft | 359 kts | 65° |
| 2026-04-26 14:46 | 52.69594 | 5.07219 | 15792 ft | 356 kts | 64° |
| 2026-04-26 14:47 | 52.70541 | 5.10974 | 15377 ft | 353 kts | 65° |
| 2026-04-26 14:47 | 52.71479 | 5.14700 | 14955 ft | 351 kts | 65° |
| 2026-04-26 14:47 | 52.72401 | 5.18370 | 14524 ft | 348 kts | 65° |
| 2026-04-26 14:47 | 52.73328 | 5.22061 | 14123 ft | 345 kts | 65° |
| 2026-04-26 14:48 | 52.74232 | 5.25670 | 13714 ft | 342 kts | 65° |
| 2026-04-26 14:48 | 52.75135 | 5.29284 | 13315 ft | 340 kts | 65° |
| 2026-04-26 14:48 | 52.76031 | 5.32878 | 12901 ft | 337 kts | 64° |
| 2026-04-26 14:48 | 52.76928 | 5.36475 | 12486 ft | 335 kts | 64° |
| 2026-04-26 14:49 | 52.77800 | 5.39974 | 12098 ft | 333 kts | 64° |
| 2026-04-26 14:49 | 52.78677 | 5.43501 | 11689 ft | 331 kts | 65° |
| 2026-04-26 14:49 | 52.79550 | 5.47020 | 11291 ft | 328 kts | 64° |
| 2026-04-26 14:49 | 52.80396 | 5.50436 | 11053 ft | 320 kts | 64° |
| 2026-04-26 14:50 | 52.81226 | 5.53803 | 10897 ft | 311 kts | 64° |
| 2026-04-26 14:50 | 52.82027 | 5.57055 | 10726 ft | 302 kts | 64° |
| 2026-04-26 14:50 | 52.82808 | 5.60224 | 10538 ft | 294 kts | 64° |
| 2026-04-26 14:50 | 52.83562 | 5.63287 | 10272 ft | 290 kts | 64° |
| 2026-04-26 14:51 | 52.84344 | 5.66464 | 9914 ft | 289 kts | 65° |
| 2026-04-26 14:51 | 52.85153 | 5.69755 | 9555 ft | 288 kts | 65° |
| 2026-04-26 14:51 | 52.85954 | 5.73015 | 9220 ft | 286 kts | 65° |
| 2026-04-26 14:51 | 52.86734 | 5.76196 | 8886 ft | 284 kts | 65° |
| 2026-04-26 14:52 | 52.87484 | 5.79259 | 8547 ft | 283 kts | 65° |
| 2026-04-26 14:52 | 52.88238 | 5.82343 | 8221 ft | 281 kts | 65° |
| 2026-04-26 14:52 | 52.88987 | 5.85414 | 7884 ft | 280 kts | 65° |
| 2026-04-26 14:52 | 52.89703 | 5.88354 | 7557 ft | 279 kts | 65° |
| 2026-04-26 14:53 | 52.90434 | 5.91362 | 7236 ft | 277 kts | 65° |
| 2026-04-26 14:53 | 52.91144 | 5.94292 | 6914 ft | 276 kts | 65° |
| 2026-04-26 14:53 | 52.91849 | 5.97204 | 6597 ft | 274 kts | 65° |
| 2026-04-26 14:53 | 52.92560 | 6.00140 | 6278 ft | 273 kts | 65° |
| 2026-04-26 14:54 | 52.93264 | 6.03048 | 5985 ft | 271 kts | 65° |
| 2026-04-26 14:54 | 52.93966 | 6.05953 | 5601 ft | 268 kts | 66° |
| 2026-04-26 14:54 | 52.94653 | 6.08796 | 5172 ft | 265 kts | 66° |
| 2026-04-26 14:54 | 52.95325 | 6.11584 | 4633 ft | 262 kts | 66° |
| 2026-04-26 14:55 | 52.95999 | 6.14384 | 4184 ft | 263 kts | 67° |
| 2026-04-26 14:55 | 52.96670 | 6.17177 | 3898 ft | 259 kts | 67° |
| 2026-04-26 14:55 | 52.97390 | 6.20186 | 3581 ft | 257 kts | 67° |
| 2026-04-26 14:55 | 52.98101 | 6.23157 | 3287 ft | 255 kts | 67° |
| 2026-04-26 14:56 | 52.98766 | 6.25942 | 3225 ft | 244 kts | 67° |
| 2026-04-26 14:56 | 52.99416 | 6.28674 | 3209 ft | 230 kts | 67° |
| 2026-04-26 14:56 | 53.00050 | 6.31335 | 3169 ft | 219 kts | 67° |
| 2026-04-26 14:56 | 53.00634 | 6.33721 | 3057 ft | 210 kts | 62° |
| 2026-04-26 14:57 | 53.01403 | 6.35704 | 2917 ft | 197 kts | 51° |
| 2026-04-26 14:57 | 53.02223 | 6.37429 | 2870 ft | 186 kts | 50° |
| 2026-04-26 14:57 | 53.03028 | 6.39086 | 2623 ft | 183 kts | 50° |
| 2026-04-26 14:57 | 53.03806 | 6.40701 | 2297 ft | 175 kts | 50° |
| 2026-04-26 14:58 | 53.04549 | 6.42254 | 2045 ft | 166 kts | 50° |
| 2026-04-26 14:58 | 53.05248 | 6.43736 | 1820 ft | 157 kts | 50° |
| 2026-04-26 14:58 | 53.05905 | 6.45162 | 1632 ft | 143 kts | 51° |
| 2026-04-26 14:58 | 53.06509 | 6.46478 | 1417 ft | 133 kts | 51° |
| 2026-04-26 14:59 | 53.07086 | 6.47729 | 1252 ft | 132 kts | 50° |
| 2026-04-26 14:59 | 53.07680 | 6.48972 | 1074 ft | 132 kts | 48° |
| 2026-04-26 14:59 | 53.08268 | 6.50180 | 918 ft | 131 kts | 50° |
| 2026-04-26 14:59 | 53.08650 | 6.50971 | 800 ft | 131 kts | 50° |
| 2026-04-26 15:00 | 53.09412 | 6.52568 | 561 ft | 131 kts | 49° |
| 2026-04-26 15:00 | 53.10006 | 6.53789 | 413 ft | 131 kts | 49° |
| 2026-04-26 15:00 | 53.10571 | 6.54973 | 214 ft | 133 kts | 49° |
| 2026-04-26 15:00 | 53.11156 | 6.56184 | 37 ft | 133 kts | 50° |
| 2026-04-26 15:01 | 53.11669 | 6.57279 | 22 ft | 97 kts | 51° |
| 2026-04-26 15:01 | 53.11986 | 6.57954 | 23 ft | 54 kts | 51° |
| 2026-04-26 15:01 | 53.12195 | 6.58392 | 21 ft | 39 kts | 51° |
| 2026-04-26 15:01 | 53.12345 | 6.58706 | 19 ft | 29 kts | 51° |
| 2026-04-26 15:02 | 53.12443 | 6.58915 | 19 ft | 17 kts | 51° |
| 2026-04-26 15:02 | 53.12515 | 6.58984 | 19 ft | 5 kts | 347° |
| 2026-04-26 15:02 | 53.12555 | 6.58969 | 19 ft | 6 kts | 346° |
| 2026-04-26 15:02 | 53.12584 | 6.58947 | 19 ft | 1 kts | 323° |
| 2026-04-26 15:03 | 53.12597 | 6.58924 | 19 ft | 3 kts | 311° |
| 2026-04-26 15:03 | 53.12618 | 6.58884 | 19 ft | 5 kts | 310° |
| 2026-04-26 15:03 | 53.12647 | 6.58826 | 19 ft | 7 kts | 308° |
| 2026-04-26 15:03 | 53.12683 | 6.58751 | 19 ft | 9 kts | 308° |
| 2026-04-26 15:04 | 53.12719 | 6.58677 | 19 ft | 2 kts | 309° |
| 2026-04-26 15:04 | 53.12731 | 6.58655 | 19 ft | 2 kts | 319° |
| 2026-04-26 15:04 | 53.12748 | 6.58657 | 19 ft | 3 kts | 20° |
| 2026-04-26 15:04 | 53.12768 | 6.58672 | 19 ft | 1 kts | 24° |
| 2026-04-26 15:05 | 53.12779 | 6.58692 | 19 ft | 3 kts | 68° |
| 2026-04-26 15:05 | 53.12782 | 6.58706 | 19 ft | 3 kts | 77° |
| 2026-04-26 15:05 | 53.12783 | 6.58714 | 19 ft | 0 kts | 81° |